Time;durP1;ratioP1;P1;durP2;ratioP2;P2;SDS_P1;SDS_P2;PMS_P1;PMS_P2;Temp;Humidity;BMP_temperature;BMP_pressure;BME280_temperature;BME280_humidity;BME280_pressure;Samples;Min_cycle;Max_cycle;Signal;HPM_P1;HPM_P2
2022/02/04 05:26:24;;;;;;;6.80;6.20;;;7.40;99.90;;;;;;4956933;29;20974;-66
2022/02/04 05:29:00;;;;;;;6.70;6.00;;;7.40;99.90;;;;;;4957404;29;20471;-66
2022/02/04 05:31:27;;;;;;;6.73;6.13;;;7.40;99.90;;;;;;4957120;29;20482;-66
2022/02/04 05:33:55;;;;;;;6.83;6.13;;;7.50;99.90;;;;;;4963601;29;20490;-65
2022/02/04 05:36:22;;;;;;;7.73;7.10;;;7.50;99.90;;;;;;4963879;29;20460;-66
2022/02/04 05:38:51;;;;;;;7.50;6.80;;;7.50;99.90;;;;;;4956964;29;20457;-67
2022/02/04 05:41:24;;;;;;;7.00;6.30;;;7.60;99.90;;;;;;4956322;29;20481;-65
2022/02/04 05:43:52;;;;;;;7.87;6.73;;;7.50;99.90;;;;;;4956001;29;20990;-67
2022/02/04 05:46:25;;;;;;;7.93;7.17;;;7.40;99.90;;;;;;4956052;29;20463;-67
2022/02/04 05:48:54;;;;;;;6.60;6.00;;;7.40;99.90;;;;;;4956055;29;20507;-66
2022/02/04 05:51:32;;;;;;;6.77;6.20;;;7.40;99.90;;;;;;4955997;29;20476;-67
2022/02/04 05:54:06;;;;;;;6.43;5.93;;;7.40;99.90;;;;;;4956171;28;20444;-66
2022/02/04 05:56:39;;;;;;;7.23;6.53;;;7.40;99.90;;;;;;4955793;29;20442;-66
2022/02/04 05:59:14;;;;;;;6.70;6.10;;;7.30;99.90;;;;;;4955999;29;20467;-67
2022/02/04 06:01:49;;;;;;;8.87;6.30;;;7.20;99.90;;;;;;4955430;29;20495;-67
2022/02/04 06:04:34;;;;;;;7.53;6.50;;;7.30;99.90;;;;;;4955900;29;20474;-68
2022/02/04 06:07:20;;;;;;;6.53;6.00;;;7.30;99.90;;;;;;4956162;29;20859;-66
2022/02/04 06:10:09;;;;;;;6.70;6.17;;;7.30;99.90;;;;;;4956078;29;20465;-65
2022/02/04 06:23:40;;;;;;;5.20;4.70;;;6.90;99.90;;;;;;4955858;29;20450;-66
2022/02/04 06:26:06;;;;;;;6.07;5.00;;;6.80;99.90;;;;;;4955406;29;20971;-66
2022/02/04 06:28:38;;;;;;;5.27;4.87;;;6.90;99.90;;;;;;4955674;29;20481;-68
2022/02/04 06:31:05;;;;;;;5.30;4.80;;;6.90;99.90;;;;;;4955940;28;20477;-66
2022/02/04 06:33:32;;;;;;;4.43;4.13;;;7.00;99.90;;;;;;4956356;29;20461;-65
2022/02/04 06:35:59;;;;;;;4.93;4.53;;;7.00;99.90;;;;;;4955937;29;20461;-67
2022/02/04 06:38:26;;;;;;;4.87;4.47;;;7.00;99.90;;;;;;4955958;29;20459;-68
2022/02/04 06:40:54;;;;;;;6.13;5.33;;;7.10;99.90;;;;;;4956816;29;20479;-66
2022/02/04 06:43:21;;;;;;;6.03;5.40;;;7.10;99.90;;;;;;4956347;28;20465;-66
2022/02/04 06:45:47;;;;;;;6.63;6.13;;;7.10;99.90;;;;;;4955749;29;20867;-67
2022/02/04 06:48:14;;;;;;;6.60;6.10;;;6.90;99.90;;;;;;4955729;29;20477;-66
2022/02/04 06:50:41;;;;;;;6.80;6.20;;;7.00;99.90;;;;;;4955569;28;20480;-67
2022/02/04 06:53:08;;;;;;;15.50;6.97;;;7.00;99.90;;;;;;4956611;29;20468;-66
2022/02/04 06:55:35;;;;;;;5.83;5.43;;;7.00;99.90;;;;;;4960902;28;20459;-69
2022/02/04 06:58:04;;;;;;;6.77;6.17;;;7.10;99.90;;;;;;4959212;29;20469;-66
2022/02/04 07:00:31;;;;;;;6.80;6.20;;;7.00;99.90;;;;;;4959517;28;20518;-66
2022/02/04 07:02:57;;;;;;;7.13;6.53;;;7.00;99.90;;;;;;4959041;29;20445;-66
2022/02/04 07:05:25;;;;;;;6.20;5.60;;;7.00;99.90;;;;;;4958842;29;20977;-66
2022/02/04 07:08:01;;;;;;;7.47;6.60;;;7.00;99.90;;;;;;4959148;29;20462;-66
2022/02/04 07:10:35;;;;;;;12.10;9.13;;;7.00;99.90;;;;;;4959264;29;20473;-65
2022/02/04 07:13:13;;;;;;;6.73;5.70;;;7.00;99.90;;;;;;4959380;29;20436;-65
2022/02/04 07:15:54;;;;;;;6.97;6.27;;;7.00;99.90;;;;;;4959778;29;20450;-66
2022/02/04 07:21:07;;;;;;;6.57;5.50;;;7.00;99.90;;;;;;4959480;29;20511;-65
2022/02/04 07:23:35;;;;;;;6.97;6.27;;;7.10;99.90;;;;;;4959403;28;20463;-65
2022/02/04 07:26:02;;;;;;;5.90;5.40;;;7.10;99.90;;;;;;4959501;28;20485;-66
2022/02/04 07:28:31;;;;;;;5.33;4.83;;;7.10;99.90;;;;;;4959434;28;20990;-67
2022/02/04 07:30:59;;;;;;;5.43;4.97;;;7.10;99.90;;;;;;4958614;29;20482;-66
2022/02/04 07:33:38;;;;;;;5.07;4.67;;;7.20;99.90;;;;;;4958676;28;20462;-66
2022/02/04 07:41:34;;;;;;;5.13;4.73;;;7.30;99.90;;;;;;4969577;29;20534;-67
2022/02/04 07:44:02;;;;;;;5.30;4.90;;;7.40;99.90;;;;;;4961563;29;20483;-66
2022/02/04 07:46:30;;;;;;;5.83;5.40;;;7.30;99.90;;;;;;4959060;29;20456;-67
2022/02/04 07:48:57;;;;;;;7.07;6.47;;;7.30;99.90;;;;;;4958324;29;20483;-66
2022/02/04 07:51:24;;;;;;;6.77;6.17;;;7.30;99.90;;;;;;4958032;28;20482;-66
2022/02/04 07:53:50;;;;;;;8.83;7.07;;;7.40;99.90;;;;;;4960097;28;20464;-66
2022/02/04 07:56:20;;;;;;;8.00;6.80;;;7.50;99.90;;;;;;4957907;29;20465;-67
2022/02/04 07:58:55;;;;;;;7.80;7.10;;;7.50;99.90;;;;;;4958133;29;20439;-67
2022/02/04 08:01:27;;;;;;;7.03;6.03;;;7.50;99.90;;;;;;4957979;29;20494;-66
2022/02/04 08:04:00;;;;;;;8.97;8.13;;;7.50;99.90;;;;;;4958004;29;20934;-67
2022/02/04 08:06:29;;;;;;;10.13;7.67;;;7.60;99.90;;;;;;4958650;28;20448;-67
2022/02/04 08:09:01;;;;;;;9.23;7.43;;;7.70;99.90;;;;;;4958432;29;20487;-67
2022/02/04 08:11:48;;;;;;;7.33;6.70;;;8.30;99.90;;;;;;4958540;29;20828;-67
2022/02/04 08:14:25;;;;;;;6.67;6.10;;;8.80;99.90;;;;;;4958391;29;20575;-68
2022/02/04 08:17:16;;;;;;;6.10;5.60;;;9.60;99.90;;;;;;4957456;29;20545;-67
2022/02/04 08:20:18;;;;;;;5.63;5.13;;;10.50;99.90;;;;;;4957249;29;20933;-68
2022/02/04 08:23:04;;;;;;;6.47;5.97;;;11.20;99.90;;;;;;4957143;29;20530;-67
2022/02/04 08:28:44;;;;;;;5.53;5.03;;;11.90;99.90;;;;;;4956974;29;20431;-67
2022/02/04 08:31:29;;;;;;;5.10;4.57;;;13.00;99.90;;;;;;4956900;29;21006;-66
2022/02/04 08:36:58;;;;;;;5.30;4.90;;;14.90;99.90;;;;;;4956903;29;20428;-67
2022/02/04 08:48:17;;;;;;;5.00;4.50;;;15.80;99.90;;;;;;4944024;29;20505;-67
2022/02/04 08:51:05;;;;;;;4.40;4.10;;;16.50;99.90;;;;;;4956829;29;20515;-67
2022/02/04 08:56:42;;;;;;;4.30;4.00;;;17.60;99.90;;;;;;4956434;29;20942;-67
2022/02/04 08:59:15;;;;;;;4.20;3.90;;;18.30;99.90;;;;;;4956791;29;20442;-66
2022/02/04 09:01:48;;;;;;;4.50;4.20;;;18.50;99.40;;;;;;4958067;29;20538;-67
2022/02/04 09:04:18;;;;;;;4.10;3.80;;;18.40;99.90;;;;;;4957628;29;20479;-66
2022/02/04 09:06:51;;;;;;;3.37;3.07;;;18.80;99.90;;;;;;4957637;29;20965;-66
2022/02/04 09:09:29;;;;;;;4.27;3.97;;;19.40;96.20;;;;;;4957520;29;20464;-67
2022/02/04 09:12:07;;;;;;;3.93;3.53;;;18.80;95.30;;;;;;4956403;29;20485;-66
2022/02/04 09:17:33;;;;;;;4.10;3.80;;;16.60;98.40;;;;;;4955892;28;20422;-68
2022/02/04 09:20:03;;;;;;;3.70;3.50;;;15.60;99.90;;;;;;4956422;29;20436;-67
2022/02/04 09:22:43;;;;;;;4.60;4.20;;;14.10;99.90;;;;;;4956045;28;20483;-67
2022/02/04 09:25:11;;;;;;;3.73;3.53;;;13.50;99.90;;;;;;4955966;28;20487;-67
2022/02/04 09:27:39;;;;;;;3.30;3.10;;;13.00;99.90;;;;;;4957330;29;20463;-67
2022/02/04 09:30:08;;;;;;;3.90;3.60;;;12.60;99.90;;;;;;4958654;28;20482;-66
2022/02/04 09:32:36;;;;;;;6.73;2.80;;;11.90;99.90;;;;;;4958312;29;20486;-67
2022/02/04 09:35:04;;;;;;;2.73;2.57;;;11.60;99.90;;;;;;4957919;29;20496;-68
2022/02/04 09:37:32;;;;;;;3.00;2.80;;;11.30;99.90;;;;;;4959508;29;20852;-67
2022/02/04 09:39:59;;;;;;;2.90;2.67;;;11.10;99.90;;;;;;4959206;28;20939;-66
2022/02/04 09:42:27;;;;;;;3.30;3.00;;;11.00;99.90;;;;;;4958968;28;20483;-67
2022/02/04 09:44:54;;;;;;;3.13;2.93;;;10.80;99.90;;;;;;4959435;29;20554;-66
2022/02/04 09:47:23;;;;;;;2.90;2.70;;;10.80;99.90;;;;;;4958340;29;20856;-66
2022/02/04 09:49:55;;;;;;;2.37;2.27;;;10.60;99.90;;;;;;4958306;29;20895;-66
2022/02/04 10:15:00;;;;;;;2.37;2.20;;;10.70;99.90;;;;;;4953569;29;20475;-66
2022/02/04 10:17:29;;;;;;;2.23;2.13;;;10.50;99.90;;;;;;4955475;29;20934;-66
2022/02/04 10:19:59;;;;;;;2.10;1.93;;;10.60;99.90;;;;;;4955338;28;20459;-66
2022/02/04 10:22:28;;;;;;;2.20;2.10;;;10.80;99.90;;;;;;4955554;28;20835;-66
2022/02/04 10:24:59;;;;;;;2.30;1.60;;;10.90;99.90;;;;;;4955477;28;20448;-67
2022/02/04 10:27:30;;;;;;;1.60;1.60;;;10.80;99.90;;;;;;4955682;29;20466;-66
2022/02/04 10:29:59;;;;;;;1.40;1.40;;;10.50;99.90;;;;;;4957170;28;20826;-67
2022/02/04 10:32:41;;;;;;;1.80;1.80;;;10.20;99.90;;;;;;4959027;29;20986;-66
2022/02/04 10:35:14;;;;;;;2.07;2.00;;;9.90;99.90;;;;;;4959304;29;20502;-66
2022/02/04 10:37:44;;;;;;;1.80;1.70;;;9.70;99.90;;;;;;4959216;29;20449;-66
2022/02/04 10:40:31;;;;;;;1.97;1.87;;;9.50;99.90;;;;;;4959243;29;20824;-66
2022/02/04 10:43:17;;;;;;;2.03;1.70;;;9.50;99.90;;;;;;4959875;29;20469;-66
2022/02/04 10:45:57;;;;;;;2.80;2.23;;;9.40;99.90;;;;;;4959212;29;20497;-66
2022/02/04 10:51:37;;;;;;;3.40;2.37;;;9.30;99.90;;;;;;4959098;29;20473;-65
2022/02/04 10:57:08;;;;;;;2.80;2.60;;;9.20;99.90;;;;;;4942052;28;20515;-66
2022/02/04 11:00:02;;;;;;;2.37;2.27;;;9.20;99.90;;;;;;4959032;28;20458;-66
2022/02/04 11:02:43;;;;;;;2.90;2.40;;;9.20;99.90;;;;;;4958656;29;20522;-67
2022/02/04 11:05:17;;;;;;;2.03;1.93;;;9.30;99.90;;;;;;4959029;28;20444;-67
2022/02/04 11:11:03;;;;;;;2.70;2.50;;;9.50;99.90;;;;;;4958865;28;20499;-67
2022/02/04 11:52:04;;;;;;;1.43;1.37;;;9.30;99.90;;;;;;4899631;29;20548;-67
2022/02/04 11:54:43;;;;;;;1.53;1.03;;;9.20;99.90;;;;;;4958984;29;20442;-65
2022/02/04 11:57:20;;;;;;;1.40;1.30;;;9.10;99.90;;;;;;4959523;28;20447;-66
2022/02/04 11:59:56;;;;;;;1.47;1.47;;;8.90;99.90;;;;;;4958684;29;20435;-66
2022/02/04 12:02:39;;;;;;;1.83;1.40;;;8.90;99.90;;;;;;4957633;29;20544;-66
2022/02/04 12:05:35;;;;;;;1.10;1.10;;;8.80;99.90;;;;;;4957608;29;20454;-65
2022/02/04 12:08:28;;;;;;;1.20;1.20;;;8.70;99.90;;;;;;4957754;29;20448;-66
2022/02/04 12:10:57;;;;;;;1.70;1.60;;;8.80;99.90;;;;;;4957204;29;20985;-67
2022/02/04 12:13:25;;;;;;;1.70;1.63;;;8.90;99.90;;;;;;4957323;29;20458;-67
2022/02/04 12:15:57;;;;;;;1.73;1.40;;;9.00;99.90;;;;;;4957491;29;20557;-66
2022/02/04 12:18:45;;;;;;;1.50;1.50;;;9.10;99.90;;;;;;4957482;29;20444;-66
2022/02/04 12:21:16;;;;;;;1.17;1.17;;;9.10;99.90;;;;;;4957215;29;20478;-66
2022/02/04 12:23:49;;;;;;;2.00;1.90;;;9.20;99.90;;;;;;4957248;29;20448;-66
2022/02/04 12:26:19;;;;;;;1.67;1.57;;;9.30;99.90;;;;;;4958003;29;20525;-67
2022/02/04 12:28:52;;;;;;;1.00;1.00;;;9.40;99.90;;;;;;4957105;29;21013;-67
2022/02/04 12:31:24;;;;;;;1.07;1.00;;;9.30;99.90;;;;;;4957065;29;20986;-66
2022/02/04 12:33:56;;;;;;;1.10;1.00;;;9.30;99.90;;;;;;4957401;29;20440;-66
2022/02/04 12:36:26;;;;;;;0.80;0.80;;;9.20;99.90;;;;;;4957648;28;20453;-66
2022/02/04 12:38:57;;;;;;;0.83;0.83;;;9.20;99.90;;;;;;4957267;29;20449;-66
2022/02/04 12:41:27;;;;;;;1.10;1.10;;;9.20;99.90;;;;;;4956879;28;20970;-66
2022/02/04 12:43:56;;;;;;;1.07;1.07;;;9.00;99.90;;;;;;4956917;29;20485;-66
2022/02/04 12:46:23;;;;;;;2.37;0.90;;;9.10;99.90;;;;;;4957030;29;20466;-66
2022/02/04 12:48:58;;;;;;;0.83;0.83;;;9.00;99.90;;;;;;4956894;29;20452;-67
2022/02/04 12:51:48;;;;;;;1.00;1.00;;;8.90;99.90;;;;;;4956606;28;20489;-66
2022/02/04 12:54:29;;;;;;;0.90;0.90;;;8.90;99.90;;;;;;4957241;29;20450;-67
2022/02/04 13:00:03;;;;;;;0.90;0.90;;;8.70;99.90;;;;;;4932575;29;20466;-66
2022/02/04 13:03:00;;;;;;;0.90;0.90;;;8.80;99.90;;;;;;4956058;29;20489;-66
2022/02/04 13:08:18;;;;;;;1.07;1.07;;;8.90;99.90;;;;;;4956341;29;20782;-67
2022/02/04 13:10:56;;;;;;;0.97;0.97;;;8.90;99.90;;;;;;4955813;28;20485;-67
2022/02/04 13:13:23;;;;;;;1.23;1.00;;;9.00;99.90;;;;;;4956237;29;20455;-68
2022/02/04 13:15:51;;;;;;;0.90;0.90;;;9.00;99.90;;;;;;4956239;29;20461;-67
2022/02/04 13:18:18;;;;;;;1.03;1.03;;;9.00;99.90;;;;;;4956172;29;20467;-66
2022/02/04 13:20:47;;;;;;;1.10;1.10;;;9.00;99.90;;;;;;4956116;29;20874;-66
2022/02/04 13:23:18;;;;;;;1.23;1.23;;;9.00;99.90;;;;;;4956226;28;20511;-66
2022/02/04 13:25:47;;;;;;;3.13;0.83;;;9.00;99.90;;;;;;4956309;29;20455;-67
2022/02/04 13:28:16;;;;;;;1.07;1.07;;;8.80;99.90;;;;;;4956187;29;20457;-67
2022/02/04 13:30:49;;;;;;;1.00;1.00;;;8.90;99.90;;;;;;4955965;28;20526;-66
2022/02/04 13:33:21;;;;;;;1.27;1.00;;;8.80;99.90;;;;;;4956318;29;20446;-66
2022/02/04 13:36:12;;;;;;;1.10;1.10;;;8.80;99.90;;;;;;4956023;28;20502;-67
2022/02/04 13:38:51;;;;;;;2.50;1.30;;;8.80;99.90;;;;;;4955977;28;20451;-66
2022/02/04 13:41:29;;;;;;;1.00;1.00;;;8.70;99.90;;;;;;4955988;29;20805;-67
2022/02/04 13:44:23;;;;;;;1.30;1.30;;;8.80;99.90;;;;;;4955949;29;20519;-67
2022/02/04 13:46:55;;;;;;;1.40;1.30;;;8.70;99.90;;;;;;4956239;29;20542;-67
2022/02/04 13:49:50;;;;;;;1.20;1.20;;;8.70;99.90;;;;;;4956005;29;20442;-67
2022/02/04 13:52:22;;;;;;;2.10;1.37;;;8.70;99.90;;;;;;4955888;29;20477;-66
2022/02/04 13:55:15;;;;;;;1.10;1.10;;;8.60;99.90;;;;;;4956066;29;20443;-67
2022/02/04 13:57:50;;;;;;;1.40;1.30;;;8.60;99.90;;;;;;4956141;29;20449;-66
2022/02/04 14:00:27;;;;;;;1.70;1.60;;;8.60;99.90;;;;;;4955546;29;20478;-67
2022/02/04 14:03:08;;;;;;;1.67;1.67;;;8.60;99.90;;;;;;4956023;28;20442;-66
2022/02/04 14:05:42;;;;;;;1.33;1.30;;;8.60;99.90;;;;;;4959764;29;20442;-66
2022/02/04 14:08:14;;;;;;;2.60;1.40;;;8.50;99.90;;;;;;4959817;29;20914;-67
2022/02/04 14:10:51;;;;;;;2.10;1.30;;;8.50;99.90;;;;;;4961201;29;20485;-66
2022/02/04 14:13:22;;;;;;;1.37;1.27;;;8.50;99.90;;;;;;4960664;29;20488;-66
2022/02/04 14:15:54;;;;;;;9.63;1.83;;;8.40;99.90;;;;;;4960145;29;20805;-66
2022/02/04 14:18:21;;;;;;;0.90;0.90;;;8.40;99.90;;;;;;4959950;29;20446;-66
2022/02/04 14:20:48;;;;;;;1.53;1.40;;;8.40;99.90;;;;;;4959799;29;20474;-66
2022/02/04 14:23:16;;;;;;;1.30;1.30;;;8.50;99.90;;;;;;4959671;29;20450;-66
2022/02/04 14:25:49;;;;;;;1.30;1.30;;;8.40;99.90;;;;;;4959731;29;20459;-66
2022/02/04 14:28:22;;;;;;;1.40;1.40;;;8.50;99.90;;;;;;4959301;29;20453;-67
2022/02/04 14:30:58;;;;;;;1.60;1.50;;;8.60;99.90;;;;;;4958792;29;20485;-66
2022/02/04 14:34:08;;;;;;;3.80;1.63;;;8.60;99.90;;;;;;4959972;29;20485;-65
2022/02/04 14:36:24;;;;;;;1.10;1.10;;;8.50;99.90;;;;;;4959505;29;20536;-67
2022/02/04 14:50:18;;;;;;;1.50;1.50;;;8.70;99.90;;;;;;4958708;29;20421;-67
2022/02/04 14:52:59;;;;;;;3.30;3.00;;;8.80;99.90;;;;;;4958647;28;20462;-65
2022/02/04 15:00:59;;;;;;;1.03;1.03;;;8.70;99.90;;;;;;4958143;29;20973;-67
2022/02/04 15:03:29;;;;;;;1.10;1.10;;;8.60;99.90;;;;;;4958517;28;20475;-66
2022/02/04 15:06:12;;;;;;;1.10;1.10;;;8.60;99.90;;;;;;4958150;28;20453;-66
2022/02/04 15:08:41;;;;;;;1.43;1.00;;;8.60;99.90;;;;;;4958140;29;20452;-65
2022/02/04 15:11:15;;;;;;;1.20;1.10;;;8.50;99.90;;;;;;4958444;28;20501;-66
2022/02/04 15:13:42;;;;;;;0.93;0.93;;;8.50;99.90;;;;;;4957919;29;20444;-65
2022/02/04 15:16:11;;;;;;;1.20;1.10;;;8.40;99.90;;;;;;4957444;28;20458;-65
2022/02/04 15:18:40;;;;;;;1.00;1.00;;;8.20;99.90;;;;;;4957816;29;20898;-65
2022/02/04 15:21:12;;;;;;;1.10;1.10;;;8.30;99.90;;;;;;4957617;29;20483;-65
2022/02/04 15:23:40;;;;;;;1.20;1.07;;;8.40;99.90;;;;;;4958074;29;20445;-66
2022/02/04 15:26:09;;;;;;;0.97;0.90;;;8.40;99.90;;;;;;4957913;29;20851;-66
2022/02/04 15:28:42;;;;;;;1.03;1.03;;;8.50;99.90;;;;;;4957945;29;20458;-66
2022/02/04 15:31:18;;;;;;;0.70;0.70;;;8.40;99.90;;;;;;4957773;29;20486;-66
2022/02/04 15:33:47;;;;;;;0.97;0.97;;;8.50;99.90;;;;;;4957925;29;20438;-66
2022/02/04 15:36:16;;;;;;;1.30;0.90;;;8.50;99.90;;;;;;4957877;28;20491;-66
2022/02/04 15:38:43;;;;;;;0.80;0.80;;;8.50;99.90;;;;;;4957958;29;20781;-66
2022/02/04 15:41:14;;;;;;;2.97;1.10;;;8.50;99.90;;;;;;4958148;29;20482;-66
2022/02/04 15:43:41;;;;;;;0.80;0.80;;;8.40;99.90;;;;;;4957873;29;20502;-66
2022/02/04 15:49:15;;;;;;;0.90;0.90;;;8.40;99.90;;;;;;4957568;29;20430;-67
2022/02/04 15:52:01;;;;;;;0.80;0.80;;;8.30;99.90;;;;;;4957762;29;20576;-67
2022/02/04 15:54:44;;;;;;;0.80;0.80;;;8.20;99.90;;;;;;4957675;28;20536;-67
2022/02/04 15:57:38;;;;;;;0.80;0.80;;;8.20;99.90;;;;;;4957608;29;20447;-67
2022/02/04 16:00:36;;;;;;;0.60;0.60;;;8.30;99.90;;;;;;4957069;29;20546;-67
2022/02/04 16:03:29;;;;;;;0.80;0.80;;;8.20;99.90;;;;;;4957321;29;20463;-67
2022/02/04 16:05:55;;;;;;;0.90;0.90;;;8.20;99.90;;;;;;4956960;29;20920;-67
2022/02/04 16:08:22;;;;;;;1.27;0.93;;;8.20;99.90;;;;;;4957225;29;20465;-65
2022/02/04 16:10:54;;;;;;;0.90;0.90;;;8.20;99.90;;;;;;4956988;29;20486;-65
2022/02/04 16:13:34;;;;;;;0.80;0.80;;;8.30;99.90;;;;;;4956996;29;20517;-65
2022/02/04 16:16:07;;;;;;;1.00;1.00;;;8.20;99.90;;;;;;4957031;29;20453;-65
2022/02/04 16:18:42;;;;;;;1.00;1.00;;;8.30;99.90;;;;;;4957077;29;20446;-65
2022/02/04 16:21:15;;;;;;;2.43;1.33;;;8.20;99.90;;;;;;4956788;29;20510;-65
2022/02/04 16:23:59;;;;;;;1.37;1.30;;;8.30;99.90;;;;;;4957050;29;20442;-65
2022/02/04 16:26:48;;;;;;;0.97;0.97;;;8.40;99.90;;;;;;4956069;28;20946;-65
2022/02/04 16:29:15;;;;;;;4.13;2.60;;;8.40;99.90;;;;;;4956851;29;20463;-65
2022/02/04 16:31:42;;;;;;;1.60;1.27;;;8.30;99.90;;;;;;4956748;29;20490;-65
2022/02/04 16:34:12;;;;;;;1.47;1.23;;;8.40;99.90;;;;;;4956861;29;20457;-65
2022/02/04 16:36:43;;;;;;;0.80;0.80;;;8.30;99.90;;;;;;4956412;29;20950;-65
2022/02/04 16:39:11;;;;;;;0.93;0.93;;;8.30;99.90;;;;;;4956929;29;20872;-65
2022/02/04 16:41:52;;;;;;;0.93;0.93;;;8.20;99.90;;;;;;4956739;29;20532;-65
2022/02/04 16:44:20;;;;;;;0.60;0.60;;;8.20;99.90;;;;;;4956757;29;20450;-66
2022/02/04 16:46:48;;;;;;;1.03;1.00;;;8.10;99.90;;;;;;4956440;29;20460;-66
2022/02/04 16:49:16;;;;;;;1.67;1.20;;;8.20;99.90;;;;;;4957036;29;20470;-66
2022/02/04 16:51:43;;;;;;;4.23;1.33;;;8.10;99.90;;;;;;4956586;29;20489;-66
2022/02/04 16:54:10;;;;;;;2.07;1.10;;;8.10;99.90;;;;;;4956403;29;20466;-66
2022/02/04 16:56:37;;;;;;;0.80;0.80;;;8.10;99.90;;;;;;4956589;28;20465;-65
2022/02/04 16:59:04;;;;;;;0.90;0.90;;;8.10;99.90;;;;;;4956334;29;20458;-66
2022/02/04 17:01:31;;;;;;;0.90;0.90;;;8.10;99.90;;;;;;4955902;29;20581;-66
2022/02/04 17:03:59;;;;;;;1.13;0.80;;;8.20;99.90;;;;;;4956294;28;20466;-67
2022/02/04 17:06:33;;;;;;;0.67;0.67;;;8.10;99.90;;;;;;4956472;28;20510;-67
2022/02/04 17:09:19;;;;;;;0.80;0.80;;;8.10;99.90;;;;;;4956389;29;20504;-65
2022/02/04 17:11:47;;;;;;;0.80;0.80;;;8.10;99.90;;;;;;4956149;29;20491;-65
2022/02/04 17:14:16;;;;;;;0.93;0.93;;;8.20;99.90;;;;;;4956010;29;20510;-65
2022/02/04 17:16:43;;;;;;;0.90;0.90;;;8.10;99.90;;;;;;4956048;29;20457;-67
2022/02/04 17:19:10;;;;;;;1.07;1.07;;;8.10;99.90;;;;;;4956365;28;20465;-65
2022/02/04 17:21:39;;;;;;;2.37;0.90;;;8.10;99.90;;;;;;4956457;29;20506;-64
2022/02/04 17:24:07;;;;;;;1.07;1.07;;;8.20;99.90;;;;;;4956184;28;20457;-64
2022/02/04 17:26:34;;;;;;;1.90;0.80;;;8.10;99.90;;;;;;4956166;29;20456;-64
2022/02/04 17:29:01;;;;;;;0.83;0.83;;;8.00;99.90;;;;;;4956401;29;20546;-64
2022/02/04 17:31:27;;;;;;;0.93;0.93;;;8.10;99.90;;;;;;4956268;29;20483;-65
2022/02/04 17:33:54;;;;;;;0.83;0.80;;;8.10;99.90;;;;;;4956134;29;20463;-65
2022/02/04 17:36:21;;;;;;;1.53;0.80;;;8.10;99.90;;;;;;4956726;29;20461;-65
2022/02/04 17:38:51;;;;;;;1.10;1.00;;;8.10;99.90;;;;;;4955529;28;20954;-65
2022/02/04 17:41:18;;;;;;;1.60;1.10;;;8.00;99.90;;;;;;4956163;29;20522;-65
2022/02/04 17:43:48;;;;;;;2.70;1.10;;;8.00;99.90;;;;;;4955935;28;20458;-65
2022/02/04 17:46:15;;;;;;;2.70;0.90;;;8.00;99.90;;;;;;4956135;29;20540;-66
2022/02/04 17:48:48;;;;;;;0.80;0.80;;;8.00;99.90;;;;;;4956063;28;20456;-66
2022/02/04 17:51:22;;;;;;;0.90;0.90;;;8.00;99.90;;;;;;4956832;29;20527;-64
2022/02/04 17:53:53;;;;;;;0.97;0.97;;;8.00;99.90;;;;;;4956377;29;20451;-65
2022/02/04 17:56:32;;;;;;;1.10;1.10;;;8.10;99.90;;;;;;4956161;29;20541;-65
2022/02/04 17:59:17;;;;;;;1.27;1.20;;;8.10;99.90;;;;;;4956323;29;20445;-64
2022/02/04 18:01:55;;;;;;;0.90;0.90;;;8.00;99.90;;;;;;4955610;28;20486;-64
2022/02/04 18:07:12;;;;;;;1.77;1.67;;;8.00;99.90;;;;;;4955771;29;20773;-65
2022/02/04 18:09:42;;;;;;;1.70;1.60;;;8.00;99.90;;;;;;4955729;29;20446;-65
2022/02/04 18:12:10;;;;;;;1.50;1.50;;;8.00;99.90;;;;;;4955622;28;20493;-65
2022/02/04 18:14:36;;;;;;;1.50;1.40;;;8.00;99.90;;;;;;4955787;28;20457;-64
2022/02/04 18:17:04;;;;;;;1.40;1.10;;;8.00;99.90;;;;;;4955595;29;20467;-64
2022/02/04 18:19:30;;;;;;;3.03;2.83;;;8.00;99.90;;;;;;4955927;28;20457;-65
2022/02/04 18:21:57;;;;;;;2.43;2.30;;;8.00;99.90;;;;;;4955259;28;20486;-66
2022/02/04 18:24:25;;;;;;;2.13;2.03;;;8.00;99.90;;;;;;4955650;29;20901;-66
2022/02/04 18:26:53;;;;;;;0.93;0.93;;;7.90;99.90;;;;;;4955498;29;20446;-67
2022/02/04 18:29:20;;;;;;;1.60;1.50;;;7.90;99.90;;;;;;4955476;29;20467;-68
2022/02/04 18:31:47;;;;;;;1.33;1.23;;;7.90;99.90;;;;;;4955320;29;20489;-67
2022/02/04 18:34:16;;;;;;;3.37;1.10;;;8.00;99.90;;;;;;4955342;29;20466;-67
2022/02/04 18:36:43;;;;;;;0.90;0.80;;;7.90;99.90;;;;;;4955374;29;20939;-67
2022/02/04 18:39:22;;;;;;;0.90;0.90;;;7.90;99.90;;;;;;4955455;29;20465;-67
2022/02/04 18:42:07;;;;;;;0.67;0.67;;;7.90;99.90;;;;;;4955465;28;20513;-68
2022/02/04 18:44:44;;;;;;;1.10;1.10;;;7.90;99.90;;;;;;4954889;29;20978;-67
2022/02/04 18:47:24;;;;;;;1.10;1.10;;;8.00;99.90;;;;;;4955118;29;20439;-67
2022/02/04 18:49:56;;;;;;;1.10;1.10;;;8.00;99.90;;;;;;4954970;28;20872;-67
2022/02/04 18:52:36;;;;;;;1.00;1.00;;;8.00;99.90;;;;;;4958642;29;20890;-67
2022/02/04 18:55:39;;;;;;;1.10;1.10;;;8.00;99.90;;;;;;4958420;29;20448;-68
2022/02/04 18:58:03;;;;;;;0.97;0.97;;;8.00;99.90;;;;;;4958200;29;20464;-68
2022/02/04 19:00:31;;;;;;;0.90;0.90;;;8.00;99.90;;;;;;4958414;29;20458;-67
2022/02/04 19:03:01;;;;;;;1.13;1.13;;;8.00;99.90;;;;;;4958744;29;20443;-67
2022/02/04 19:05:32;;;;;;;1.40;1.30;;;7.90;99.90;;;;;;4958527;28;20459;-67
2022/02/04 19:08:03;;;;;;;1.30;1.30;;;7.90;99.90;;;;;;4958683;29;20447;-67
2022/02/04 19:10:34;;;;;;;1.50;1.40;;;8.00;99.90;;;;;;4958408;29;20469;-67
2022/02/04 19:13:05;;;;;;;1.30;1.30;;;7.90;99.90;;;;;;4959225;29;20476;-68
2022/02/04 19:18:27;;;;;;;3.10;1.43;;;8.00;99.90;;;;;;4947570;29;20546;-67
2022/02/04 19:21:03;;;;;;;1.17;1.17;;;8.00;99.90;;;;;;4958172;29;20481;-67
2022/02/04 19:23:30;;;;;;;1.70;1.53;;;8.00;99.90;;;;;;4958150;28;20439;-67
2022/02/04 19:25:59;;;;;;;1.60;1.50;;;8.00;99.90;;;;;;4957758;29;20508;-67
2022/02/04 19:28:27;;;;;;;2.10;1.60;;;8.00;99.90;;;;;;4958115;29;20520;-67
2022/02/04 19:30:58;;;;;;;1.30;1.23;;;8.00;99.90;;;;;;4957655;29;21072;-67
2022/02/04 19:33:26;;;;;;;1.60;1.50;;;7.90;99.90;;;;;;4958070;29;20464;-67
2022/02/04 19:35:54;;;;;;;1.30;1.30;;;7.90;99.90;;;;;;4958160;29;20466;-67
2022/02/04 19:38:21;;;;;;;2.80;2.70;;;7.90;99.90;;;;;;4957840;28;20544;-67
2022/02/04 19:40:48;;;;;;;1.77;1.67;;;7.90;99.90;;;;;;4958279;29;20479;-67
2022/02/04 19:43:19;;;;;;;1.20;1.20;;;7.80;99.90;;;;;;4957860;29;20441;-67
2022/02/04 19:45:51;;;;;;;1.60;1.60;;;7.80;99.90;;;;;;4957720;29;20441;-67
2022/02/04 19:48:26;;;;;;;1.30;1.30;;;7.80;99.90;;;;;;4958241;29;20450;-67
2022/02/04 19:51:20;;;;;;;1.57;1.47;;;7.80;99.90;;;;;;4957836;28;20513;-67
2022/02/04 19:54:09;;;;;;;1.23;1.23;;;7.80;99.90;;;;;;4957506;29;20447;-67
2022/02/04 20:12:54;;;;;;;0.87;0.87;;;8.00;99.90;;;;;;4957148;29;20908;-67
2022/02/04 20:27:00;;;;;;;1.33;1.17;;;8.30;99.90;;;;;;4956819;29;20422;-67
2022/02/04 20:29:26;;;;;;;1.13;1.13;;;8.30;99.90;;;;;;4956891;29;20452;-67
2022/02/04 20:31:53;;;;;;;1.40;1.20;;;8.30;99.90;;;;;;4956652;28;20843;-67
2022/02/04 20:34:20;;;;;;;1.10;1.10;;;8.40;99.90;;;;;;4956753;28;20471;-67
2022/02/04 20:36:48;;;;;;;1.43;1.33;;;8.40;99.90;;;;;;4956111;28;20938;-67
2022/02/04 20:39:16;;;;;;;0.93;0.93;;;8.50;99.90;;;;;;4956205;29;20969;-67
2022/02/04 20:41:43;;;;;;;1.43;1.33;;;8.40;99.90;;;;;;4956570;29;20481;-68
2022/02/04 20:44:10;;;;;;;0.83;0.83;;;8.50;99.90;;;;;;4956485;29;20449;-67
2022/02/04 20:46:37;;;;;;;1.50;1.40;;;8.50;99.90;;;;;;4956306;29;20443;-67
2022/02/04 20:49:08;;;;;;;1.10;1.03;;;8.40;99.90;;;;;;4956504;28;20476;-67
2022/02/04 20:51:35;;;;;;;1.53;0.90;;;8.40;99.90;;;;;;4956340;29;20482;-67
2022/02/04 20:54:03;;;;;;;0.80;0.80;;;8.50;99.90;;;;;;4956090;29;20922;-66
2022/02/04 20:56:30;;;;;;;1.43;1.20;;;8.50;99.90;;;;;;4956633;29;20442;-65
2022/02/04 20:58:56;;;;;;;2.30;1.13;;;8.50;99.90;;;;;;4956471;29;20466;-66
2022/02/04 21:01:23;;;;;;;0.80;0.80;;;8.60;99.90;;;;;;4956099;29;21032;-67
2022/02/04 21:03:52;;;;;;;0.90;0.90;;;8.50;99.90;;;;;;4956234;29;20454;-68
2022/02/04 21:06:25;;;;;;;1.10;1.10;;;8.50;99.90;;;;;;4956567;29;20545;-65
2022/02/04 21:09:18;;;;;;;1.30;1.30;;;8.50;99.90;;;;;;4956201;29;20454;-66
2022/02/04 21:14:47;;;;;;;1.10;1.00;;;8.40;99.90;;;;;;4955550;28;20434;-65
2022/02/04 21:17:19;;;;;;;1.13;1.13;;;8.40;99.90;;;;;;4955578;29;20441;-65
2022/02/04 21:19:48;;;;;;;1.23;1.23;;;8.40;99.90;;;;;;4956059;29;20448;-66
2022/02/04 21:22:15;;;;;;;2.50;1.33;;;8.40;99.90;;;;;;4955840;29;20473;-66
2022/02/04 21:24:42;;;;;;;1.57;0.90;;;8.40;99.90;;;;;;4955978;29;20462;-66
2022/02/04 21:27:10;;;;;;;1.00;1.00;;;8.40;99.90;;;;;;4956506;29;20443;-66
2022/02/04 21:29:38;;;;;;;0.83;0.83;;;8.40;99.90;;;;;;4955950;29;20465;-66
2022/02/04 21:32:06;;;;;;;1.20;1.20;;;8.40;99.90;;;;;;4955592;29;20498;-65
2022/02/04 21:37:17;;;;;;;0.77;0.77;;;8.40;99.90;;;;;;4955666;29;20423;-66
2022/02/04 21:39:46;;;;;;;1.10;0.83;;;8.30;99.90;;;;;;4955290;28;21004;-66
2022/02/04 21:42:16;;;;;;;1.13;1.00;;;8.40;99.90;;;;;;4955576;29;20474;-66
2022/02/04 21:44:45;;;;;;;1.57;1.47;;;8.50;99.90;;;;;;4955322;29;20988;-66